الصفحة الرئيسية
METAR-TAF:

METAR-TAF

مطار :

نواكشوط, موريتانيا

مطار نواكشوط الدولي

دائرة عرض: 18-18-36N, خط طول: 015-58-11W, ارتفاع: 3 متر

مراقبة الطقس الحالي

تاريخ ووقت الإصدار 13 دقيقة قبل الساعة 03:30UTC
ريح 9 عقدة من الشمال/الشمال الشرقي, الاتجاه يتراوح بين الشمال/الشمال الغربي و الشمال الشرقي
درجة الحرارة 15°درجة مئوية
الرطوبة 33%
ضغط 1017 hPa
الرؤية: 7000 متر

METAR: GQNO 190330Z 02009KT 340V050 7000 NSC 15/M01 Q1017 NOSIG

زمن: 03:43 (03:43 UTC)

توقعات

تاريخ ووقت الإصدار 4ساعات و 43 دقيقة قبل الساعة 23:00UTC
التوقعات صالحة من19 الساعة 00 UTC إلى 20 الساعة 06 UTC
ريح 8 عقدة من الشمال/الشمال الشرقي
الرؤية: 7000 متر
أصبح
من 19 الساعة 06 UTC إلى 19 الساعة 08 UTC
ريح 12 عقدة من الشمال الشرقي

TAF: GQNO 182300Z 1900/2006 02008KT 7000 NSC BECMG 1906/1908 05012KT

أرصاد الطقس والتوقعات من أكثر من 4000 مطار (تقارير الطقس للمطار METAR والتنبؤ بالطقس بالمطارTAF).

المحطات المتاحة هي النقط الصفراء والحمراء على الخريطة.

حرك المؤشر فوق النقطة لمعرفة اسم المحطة.

ثم انقر لمعرفة أرصاد وتوقعات الطقس.

لتغيير الخارطة: اضغط على الأزرار الخضراء مع رمز الصليب الأسود للتكبير. على الزر الأخضر مع شرطة للتصغير، أو على الأسهم الخضراء للخرائط المجاورة.


METAR-TAF: